Time;durP1;ratioP1;P1;durP2;ratioP2;P2;SDS_P1;SDS_P2;PMS_P1;PMS_P2;Temp;Humidity;BMP_temperature;BMP_pressure;BME280_temperature;BME280_humidity;BME280_pressure;Samples;Min_cycle;Max_cycle;Signal;HPM_P1;HPM_P2
2023/04/16 00:02:11;;;;;;;83.78;24.10;;;8.80;99.90;;;;;;5011855;28;20394;-53
2023/04/16 00:04:37;;;;;;;87.55;37.35;;;9.00;99.90;;;;;;5013514;28;20048;-52
2023/04/16 00:07:02;;;;;;;89.10;24.90;;;8.90;99.90;;;;;;4996191;28;20042;-54
2023/04/16 00:09:28;;;;;;;85.75;26.27;;;8.60;99.90;;;;;;5012056;28;20493;-55
2023/04/16 00:11:54;;;;;;;80.07;25.00;;;8.50;99.90;;;;;;5011315;28;20038;-56
2023/04/16 00:14:19;;;;;;;76.78;25.63;;;9.00;99.90;;;;;;5012363;28;20041;-57
2023/04/16 00:16:45;;;;;;;79.35;24.42;;;8.50;99.90;;;;;;5010440;28;20046;-56
2023/04/16 00:19:11;;;;;;;74.10;23.98;;;8.60;99.90;;;;;;5004786;28;20041;-56
2023/04/16 00:21:37;;;;;;;74.72;25.30;;;8.60;99.90;;;;;;5010037;28;20067;-54
2023/04/16 00:24:02;;;;;;;78.07;24.75;;;8.60;99.90;;;;;;5012174;28;20477;-56
2023/04/16 00:26:28;;;;;;;79.70;34.45;;;8.80;99.90;;;;;;5011543;28;20042;-53
2023/04/16 00:28:54;;;;;;;90.50;24.38;;;8.60;99.90;;;;;;5011920;28;20112;-52
2023/04/16 00:31:30;;;;;;;80.05;25.58;;;9.00;99.90;;;;;;4994005;28;20038;-53
2023/04/16 00:33:57;;;;;;;91.85;26.17;;;8.60;99.90;;;;;;5010444;28;20040;-53
2023/04/16 00:36:24;;;;;;;85.57;25.10;;;8.90;99.90;;;;;;5011748;28;20049;-50
2023/04/16 00:38:50;;;;;;;70.20;23.42;;;8.70;99.90;;;;;;5012102;28;20045;-54
2023/04/16 00:41:16;;;;;;;76.70;23.27;;;8.90;99.90;;;;;;5010583;28;20045;-50
2023/04/16 00:43:41;;;;;;;80.28;24.80;;;8.80;99.90;;;;;;5011686;28;20504;-58
2023/04/16 00:46:07;;;;;;;83.75;24.10;;;8.60;99.90;;;;;;5010082;28;20041;-50
2023/04/16 00:48:39;;;;;;;90.07;25.10;;;8.60;99.90;;;;;;5012277;28;20042;-51
2023/04/16 00:51:06;;;;;;;84.50;25.55;;;8.60;99.90;;;;;;5010832;28;20050;-52
2023/04/16 00:53:33;;;;;;;101.95;40.50;;;9.00;99.90;;;;;;5004608;28;20045;-52
2023/04/16 00:56:02;;;;;;;86.88;24.85;;;8.70;99.90;;;;;;5010681;28;20405;-50
2023/04/16 00:58:29;;;;;;;84.05;25.58;;;9.10;99.90;;;;;;5010034;28;20080;-50
2023/04/16 01:00:55;;;;;;;84.57;26.23;;;8.50;99.90;;;;;;5010585;28;20091;-51
2023/04/16 01:03:22;;;;;;;87.65;26.05;;;9.00;99.90;;;;;;5004656;28;20045;-54
2023/04/16 01:05:48;;;;;;;89.15;26.58;;;8.60;99.90;;;;;;5009069;28;20053;-56
2023/04/16 01:08:20;;;;;;;87.78;26.25;;;8.70;99.90;;;;;;5010287;28;20029;-56
2023/04/16 01:10:47;;;;;;;90.38;26.40;;;9.30;99.90;;;;;;5010677;28;20439;-57
2023/04/16 01:13:12;;;;;;;86.68;26.73;;;8.80;99.90;;;;;;5011207;28;20385;-53
2023/04/16 01:15:38;;;;;;;86.00;26.17;;;8.50;99.90;;;;;;5009771;28;20072;-55
2023/04/16 01:18:15;;;;;;;100.47;27.42;;;9.00;99.90;;;;;;5011015;28;20048;-56
2023/04/16 01:20:40;;;;;;;79.45;25.88;;;8.90;99.90;;;;;;4991971;28;20041;-56
2023/04/16 01:23:06;;;;;;;92.85;26.58;;;9.00;99.90;;;;;;5010290;28;20034;-58
2023/04/16 01:25:32;;;;;;;94.95;27.08;;;8.80;99.90;;;;;;5010739;28;20393;-51
2023/04/16 01:27:58;;;;;;;95.75;27.35;;;8.50;99.90;;;;;;5010947;28;20077;-50
2023/04/16 01:30:24;;;;;;;89.28;26.20;;;9.10;99.90;;;;;;4993275;28;20042;-53
2023/04/16 01:32:50;;;;;;;88.70;27.15;;;8.80;99.90;;;;;;5010388;28;20041;-59
2023/04/16 01:35:17;;;;;;;112.97;29.92;;;8.50;99.90;;;;;;4993184;28;20382;-49
2023/04/16 01:37:43;;;;;;;98.50;30.63;;;9.10;99.90;;;;;;4976810;28;20053;-52
2023/04/16 01:40:09;;;;;;;86.65;29.30;;;9.10;99.90;;;;;;5006187;28;20038;-56
2023/04/16 01:42:36;;;;;;;92.30;28.55;;;8.90;99.90;;;;;;4991959;28;20064;-55
2023/04/16 01:45:01;;;;;;;96.93;29.73;;;8.70;99.90;;;;;;4992937;28;20062;-54
2023/04/16 01:47:27;;;;;;;97.03;30.70;;;9.20;99.90;;;;;;5009192;28;20627;-57
2023/04/16 01:49:53;;;;;;;106.40;31.45;;;9.10;99.90;;;;;;5004799;28;20509;-52
2023/04/16 01:52:19;;;;;;;112.95;33.13;;;8.70;99.90;;;;;;5010861;28;20041;-51
2023/04/16 01:54:45;;;;;;;110.40;30.88;;;8.80;99.90;;;;;;5011070;28;20038;-53
2023/04/16 01:57:10;;;;;;;104.43;31.83;;;8.80;99.90;;;;;;5010855;28;20114;-51
2023/04/16 01:59:36;;;;;;;109.78;31.10;;;9.00;99.90;;;;;;5011216;28;20450;-56
2023/04/16 02:02:15;;;;;;;109.43;30.65;;;8.50;99.90;;;;;;5011119;28;20116;-59
2023/04/16 02:04:42;;;;;;;112.63;33.20;;;9.10;99.90;;;;;;5011157;28;20076;-54
2023/04/16 02:07:08;;;;;;;104.03;31.52;;;8.80;99.90;;;;;;5008741;28;20089;-55
2023/04/16 02:09:36;;;;;;;112.35;31.75;;;9.00;99.90;;;;;;5010973;28;20069;-50
2023/04/16 02:12:02;;;;;;;113.53;31.30;;;8.60;99.90;;;;;;5010648;28;20413;-52
2023/04/16 02:14:28;;;;;;;106.43;32.58;;;8.60;99.90;;;;;;5010560;28;20033;-50
2023/04/16 02:16:54;;;;;;;99.93;30.48;;;8.50;99.90;;;;;;5010490;28;20129;-60
2023/04/16 02:19:20;;;;;;;97.97;31.60;;;8.50;99.90;;;;;;5010588;28;20108;-53
2023/04/16 02:21:46;;;;;;;105.40;29.90;;;9.00;99.90;;;;;;5011108;28;20113;-56
2023/04/16 02:24:12;;;;;;;104.53;30.83;;;9.20;99.90;;;;;;5010866;28;20038;-57
2023/04/16 02:26:38;;;;;;;99.78;30.38;;;9.10;99.90;;;;;;5010963;28;20100;-48
2023/04/16 02:29:04;;;;;;;106.88;30.45;;;8.60;99.90;;;;;;5010512;28;20107;-53
2023/04/16 02:31:30;;;;;;;99.63;30.42;;;8.60;99.90;;;;;;5010742;28;20045;-57
2023/04/16 02:33:56;;;;;;;92.88;30.15;;;8.70;99.90;;;;;;5013872;28;20042;-53
2023/04/16 02:36:22;;;;;;;91.90;30.50;;;9.10;99.90;;;;;;5010444;28;20489;-53
2023/04/16 02:38:47;;;;;;;84.10;30.42;;;8.60;99.90;;;;;;5010449;28;20049;-55
2023/04/16 02:41:13;;;;;;;84.45;29.63;;;9.00;99.90;;;;;;5007819;28;20579;-50
2023/04/16 02:43:39;;;;;;;91.97;32.08;;;8.90;99.90;;;;;;5010246;28;20362;-55
2023/04/16 02:46:05;;;;;;;85.68;29.13;;;9.10;99.90;;;;;;5016486;28;20050;-50
2023/04/16 02:48:31;;;;;;;84.15;29.98;;;9.20;99.90;;;;;;5022125;28;20045;-53
2023/04/16 02:50:57;;;;;;;84.60;30.60;;;8.80;99.90;;;;;;5008951;28;20054;-52
2023/04/16 02:53:22;;;;;;;69.60;29.20;;;9.10;99.90;;;;;;5008927;28;20398;-52
2023/04/16 02:55:53;;;;;;;79.03;28.55;;;8.70;99.90;;;;;;4992624;28;20041;-54
2023/04/16 02:58:20;;;;;;;71.63;28.98;;;9.20;99.90;;;;;;5008622;28;20579;-56
2023/04/16 03:00:46;;;;;;;69.63;28.05;;;8.90;99.90;;;;;;4990989;28;20057;-54
2023/04/16 03:03:12;;;;;;;78.75;28.75;;;8.60;99.90;;;;;;5009408;28;20046;-48
2023/04/16 03:05:38;;;;;;;80.60;28.20;;;9.10;99.90;;;;;;5008390;28;20042;-49
2023/04/16 03:08:04;;;;;;;77.70;28.52;;;9.10;99.90;;;;;;5009616;28;20051;-50
2023/04/16 03:10:30;;;;;;;78.13;29.13;;;8.80;99.90;;;;;;5007964;28;20877;-57
2023/04/16 03:12:56;;;;;;;71.82;28.45;;;9.00;99.90;;;;;;5007835;28;20133;-50
2023/04/16 03:15:21;;;;;;;83.10;29.15;;;8.60;99.90;;;;;;4991233;28;20037;-51
2023/04/16 03:17:47;;;;;;;84.78;29.88;;;9.00;99.90;;;;;;5007210;28;20042;-54
2023/04/16 03:20:16;;;;;;;76.65;27.60;;;9.10;99.90;;;;;;5002521;28;20042;-51
2023/04/16 03:22:42;;;;;;;85.70;29.02;;;9.10;99.90;;;;;;5007791;28;20038;-54
2023/04/16 03:25:08;;;;;;;74.25;29.17;;;9.10;99.90;;;;;;5008884;28;20108;-53
2023/04/16 03:27:34;;;;;;;77.22;30.50;;;9.00;99.90;;;;;;5009469;28;20034;-56
2023/04/16 03:30:01;;;;;;;86.88;28.38;;;9.10;99.90;;;;;;5008224;28;20030;-52
2023/04/16 03:32:26;;;;;;;73.97;30.00;;;8.70;99.90;;;;;;5010370;28;20070;-57
2023/04/16 03:34:52;;;;;;;84.05;28.20;;;8.70;99.90;;;;;;5011724;28;20120;-55
2023/04/16 03:37:18;;;;;;;77.50;28.90;;;8.60;99.90;;;;;;5010674;28;20486;-56
2023/04/16 03:39:43;;;;;;;71.60;24.80;;;8.50;99.90;;;;;;5010868;28;20045;-54
2023/04/16 03:42:09;;;;;;;66.18;25.42;;;8.50;99.90;;;;;;4996355;28;20044;-50
2023/04/16 03:44:35;;;;;;;71.68;27.92;;;8.60;99.90;;;;;;5012215;28;20108;-57
2023/04/16 03:47:01;;;;;;;75.28;37.78;;;8.80;99.90;;;;;;5007801;28;20045;-54
2023/04/16 03:49:26;;;;;;;66.93;27.13;;;8.80;99.90;;;;;;5011351;28;20555;-52
2023/04/16 03:51:52;;;;;;;78.63;38.17;;;9.20;99.90;;;;;;5012499;28;20382;-56
2023/04/16 03:54:18;;;;;;;72.25;27.83;;;8.60;99.90;;;;;;4994273;28;20046;-56
2023/04/16 03:56:43;;;;;;;83.35;27.33;;;8.50;99.90;;;;;;5012879;28;20500;-52
2023/04/16 03:59:09;;;;;;;61.00;23.85;;;9.00;99.90;;;;;;5012017;28;20515;-55
2023/04/16 04:01:35;;;;;;;67.78;24.58;;;8.90;99.90;;;;;;4994413;28;20064;-53
2023/04/16 04:04:00;;;;;;;62.70;24.65;;;8.50;99.90;;;;;;5011741;28;20065;-51
2023/04/16 04:06:26;;;;;;;69.43;24.30;;;8.80;99.90;;;;;;5012418;28;20037;-53
2023/04/16 04:08:52;;;;;;;63.28;25.80;;;8.90;99.90;;;;;;5011756;28;20046;-55
2023/04/16 04:11:18;;;;;;;65.63;26.30;;;8.70;99.90;;;;;;5011659;28;20128;-60
2023/04/16 04:13:44;;;;;;;59.45;25.10;;;8.40;99.90;;;;;;5013904;28;20121;-52
2023/04/16 04:16:10;;;;;;;60.13;24.75;;;8.60;99.90;;;;;;5011318;28;20511;-52
2023/04/16 04:18:36;;;;;;;59.08;24.67;;;8.50;99.90;;;;;;5007265;28;20481;-56
2023/04/16 04:21:06;;;;;;;60.30;25.15;;;8.50;99.90;;;;;;5012714;28;20091;-49
2023/04/16 04:23:32;;;;;;;63.63;24.38;;;8.80;99.90;;;;;;5003404;28;20083;-52
2023/04/16 04:25:58;;;;;;;57.53;24.17;;;8.60;99.90;;;;;;5010445;28;20045;-54
2023/04/16 04:28:24;;;;;;;61.60;25.05;;;8.60;99.90;;;;;;5011640;28;20038;-51
2023/04/16 04:30:49;;;;;;;59.55;24.65;;;8.40;99.90;;;;;;4993202;28;20053;-55
2023/04/16 04:33:15;;;;;;;54.40;24.80;;;8.90;99.90;;;;;;5011563;28;20548;-55
2023/04/16 04:35:41;;;;;;;60.60;37.40;;;9.00;99.90;;;;;;5011685;28;20033;-55
2023/04/16 04:38:06;;;;;;;62.10;24.90;;;9.00;99.90;;;;;;5012846;28;20496;-51
2023/04/16 04:40:32;;;;;;;54.58;23.75;;;8.80;99.90;;;;;;5011795;28;20041;-53
2023/04/16 04:42:58;;;;;;;54.70;24.30;;;8.80;99.90;;;;;;5011075;28;20401;-54
2023/04/16 04:45:26;;;;;;;66.75;26.13;;;8.70;99.90;;;;;;5010489;28;20392;-52
2023/04/16 04:47:52;;;;;;;61.47;24.42;;;9.00;99.90;;;;;;5013079;28;20180;-56
2023/04/16 04:50:18;;;;;;;56.88;25.02;;;8.50;99.90;;;;;;5012378;28;20124;-58
2023/04/16 04:52:43;;;;;;;62.35;25.98;;;8.60;99.90;;;;;;5011391;28;20045;-52
2023/04/16 04:55:09;;;;;;;60.72;26.13;;;8.70;99.90;;;;;;5012076;28;20030;-53
2023/04/16 04:57:35;;;;;;;62.47;24.20;;;8.60;99.90;;;;;;5012449;28;20129;-58
2023/04/16 05:00:03;;;;;;;65.82;24.63;;;8.80;99.90;;;;;;5012467;28;20032;-51
2023/04/16 05:02:28;;;;;;;68.65;25.50;;;8.60;99.90;;;;;;5011970;28;20037;-53
2023/04/16 05:04:54;;;;;;;64.40;25.98;;;8.70;99.90;;;;;;5011834;28;20092;-53
2023/04/16 05:07:20;;;;;;;69.57;36.95;;;8.60;99.90;;;;;;5010319;28;20133;-51
2023/04/16 05:09:46;;;;;;;68.40;27.02;;;8.60;99.90;;;;;;5011657;28;20029;-56
2023/04/16 05:12:12;;;;;;;73.45;28.20;;;8.80;99.90;;;;;;5012038;28;20037;-53
2023/04/16 05:14:37;;;;;;;68.30;27.90;;;8.60;99.90;;;;;;5011973;28;20048;-56
2023/04/16 05:17:03;;;;;;;82.28;29.85;;;9.10;99.90;;;;;;5011349;28;20034;-50
2023/04/16 05:19:29;;;;;;;71.82;29.60;;;8.60;99.90;;;;;;5013453;28;20034;-54
2023/04/16 05:21:54;;;;;;;78.72;31.17;;;8.60;99.90;;;;;;5012576;28;20100;-54
2023/04/16 05:24:21;;;;;;;74.03;28.90;;;8.60;99.90;;;;;;5012396;28;20046;-51
2023/04/16 05:26:46;;;;;;;84.68;45.45;;;8.90;99.90;;;;;;5011568;28;20080;-52
2023/04/16 05:29:12;;;;;;;86.03;29.77;;;8.70;99.90;;;;;;5011876;28;20066;-56
2023/04/16 05:31:38;;;;;;;89.53;43.97;;;8.70;99.90;;;;;;5011573;28;20453;-51
2023/04/16 05:34:03;;;;;;;84.65;29.10;;;8.70;99.90;;;;;;5011894;28;20143;-51
2023/04/16 05:36:29;;;;;;;81.22;29.98;;;8.60;99.90;;;;;;5011721;28;20041;-54
2023/04/16 05:38:55;;;;;;;73.78;28.13;;;8.60;99.90;;;;;;5011695;28;20453;-50
2023/04/16 05:41:20;;;;;;;80.82;29.52;;;8.60;99.90;;;;;;5011186;28;20099;-50
2023/04/16 05:43:46;;;;;;;73.15;29.40;;;9.20;99.90;;;;;;5011591;28;20068;-48
2023/04/16 05:46:12;;;;;;;79.25;30.30;;;8.70;99.90;;;;;;5009685;28;20069;-55
2023/04/16 05:48:37;;;;;;;78.03;31.00;;;9.10;99.90;;;;;;5010291;28;20066;-55
2023/04/16 05:51:03;;;;;;;72.97;29.13;;;9.20;99.90;;;;;;5009422;28;20077;-50
2023/04/16 05:53:29;;;;;;;70.30;27.80;;;9.10;99.90;;;;;;5003223;28;20048;-50
2023/04/16 05:55:54;;;;;;;60.47;28.52;;;9.20;99.90;;;;;;5009757;28;20037;-53
2023/04/16 05:58:20;;;;;;;62.65;38.78;;;9.00;99.90;;;;;;4994004;28;20089;-53
2023/04/16 06:00:46;;;;;;;62.55;27.48;;;9.20;99.90;;;;;;5010739;28;20044;-52
2023/04/16 06:03:11;;;;;;;69.78;28.90;;;8.80;99.90;;;;;;4992497;28;20044;-53
2023/04/16 06:05:37;;;;;;;62.72;26.77;;;9.10;99.90;;;;;;5009361;28;20403;-57
2023/04/16 06:08:03;;;;;;;61.45;28.02;;;8.80;99.90;;;;;;5009962;28;20031;-59
2023/04/16 06:10:28;;;;;;;56.83;26.60;;;9.30;99.90;;;;;;5009871;28;20386;-51
2023/04/16 06:12:54;;;;;;;53.88;26.25;;;9.20;99.90;;;;;;5011247;28;20397;-48
2023/04/16 06:15:20;;;;;;;58.67;27.27;;;9.20;99.90;;;;;;4993596;28;20030;-52
2023/04/16 06:17:45;;;;;;;63.33;27.65;;;9.00;99.90;;;;;;5008525;28;20045;-52
2023/04/16 06:20:11;;;;;;;59.42;26.83;;;9.00;99.90;;;;;;5009715;28;20042;-50
2023/04/16 06:22:37;;;;;;;59.92;26.38;;;9.00;99.90;;;;;;5009254;28;20034;-50
2023/04/16 06:25:03;;;;;;;60.53;27.20;;;9.30;99.90;;;;;;4991675;28;20046;-53
2023/04/16 06:27:30;;;;;;;58.65;24.75;;;9.00;99.90;;;;;;5009226;28;20045;-56
2023/04/16 06:29:57;;;;;;;54.83;25.90;;;9.20;99.90;;;;;;5010044;28;20046;-55
2023/04/16 06:32:23;;;;;;;57.15;25.50;;;9.40;99.90;;;;;;5009700;28;20121;-50
2023/04/16 06:34:48;;;;;;;56.25;25.00;;;9.50;99.90;;;;;;5009998;28;20533;-48
2023/04/16 06:37:15;;;;;;;55.50;25.00;;;9.00;99.90;;;;;;5005590;28;20046;-55
2023/04/16 06:39:40;;;;;;;53.92;33.22;;;9.00;99.90;;;;;;4990611;28;20169;-56
2023/04/16 06:42:06;;;;;;;51.50;23.25;;;9.50;99.90;;;;;;5007947;28;20499;-55
2023/04/16 06:44:32;;;;;;;53.58;23.52;;;9.50;99.90;;;;;;5009845;28;20501;-55
2023/04/16 06:46:57;;;;;;;54.38;24.35;;;9.20;99.90;;;;;;5010862;28;20054;-52
2023/04/16 06:49:23;;;;;;;57.30;23.98;;;9.40;99.90;;;;;;4989598;28;20405;-53
2023/04/16 06:51:49;;;;;;;50.53;23.73;;;9.40;99.90;;;;;;5004297;28;20133;-54
2023/04/16 06:54:15;;;;;;;55.75;24.73;;;9.50;99.90;;;;;;5009554;28;20426;-55
2023/04/16 06:56:41;;;;;;;57.47;24.88;;;9.50;99.90;;;;;;5008400;28;20046;-59
2023/04/16 06:59:06;;;;;;;53.80;25.38;;;9.50;99.90;;;;;;5009381;28;20530;-58
2023/04/16 07:01:32;;;;;;;56.83;24.42;;;9.50;99.90;;;;;;5008681;28;20045;-54
2023/04/16 07:03:58;;;;;;;54.72;23.67;;;9.10;99.90;;;;;;5009426;28;20041;-56
2023/04/16 07:06:25;;;;;;;54.53;23.95;;;9.50;99.90;;;;;;5009162;28;20054;-55
2023/04/16 07:08:51;;;;;;;55.50;24.35;;;9.20;99.90;;;;;;5012329;28;20448;-52
2023/04/16 07:11:18;;;;;;;56.22;24.95;;;9.20;99.90;;;;;;5014175;28;20045;-52
2023/04/16 07:13:43;;;;;;;54.38;23.75;;;9.20;99.90;;;;;;5012811;28;20430;-54
2023/04/16 07:16:09;;;;;;;61.30;24.05;;;9.20;99.90;;;;;;5005128;28;20124;-57
2023/04/16 07:18:35;;;;;;;58.45;23.40;;;9.40;99.90;;;;;;5013612;28;20046;-54
2023/04/16 07:21:00;;;;;;;49.72;22.95;;;9.30;99.90;;;;;;5014973;28;20049;-52
2023/04/16 07:23:26;;;;;;;51.63;23.15;;;9.70;99.90;;;;;;4989045;28;20049;-55
2023/04/16 07:25:52;;;;;;;53.42;24.48;;;9.70;99.90;;;;;;4981833;28;21349;-58
2023/04/16 07:28:18;;;;;;;54.10;23.45;;;9.50;99.90;;;;;;4983532;28;20027;-54
2023/04/16 07:30:43;;;;;;;61.20;23.80;;;9.70;99.90;;;;;;4981019;28;20487;-50
2023/04/16 07:33:09;;;;;;;62.83;25.00;;;9.50;99.90;;;;;;4978575;28;20031;-57
2023/04/16 07:35:35;;;;;;;63.67;26.00;;;9.70;99.90;;;;;;4981169;28;20056;-55
2023/04/16 07:38:01;;;;;;;62.22;23.77;;;9.60;99.90;;;;;;4981864;28;20122;-52
2023/04/16 07:40:26;;;;;;;60.65;25.33;;;9.70;99.90;;;;;;4979382;28;20126;-51
2023/04/16 07:42:53;;;;;;;50.88;24.02;;;9.80;99.90;;;;;;4979148;28;20157;-58
2023/04/16 07:45:19;;;;;;;51.88;23.95;;;9.80;99.90;;;;;;4977716;28;20042;-53
2023/04/16 07:47:45;;;;;;;56.20;22.50;;;9.80;99.90;;;;;;4980968;28;20412;-52
2023/04/16 07:50:11;;;;;;;53.63;29.90;;;9.90;99.90;;;;;;4981748;28;20121;-56
2023/04/16 07:52:40;;;;;;;54.22;22.67;;;10.10;99.90;;;;;;4994111;28;20049;-58
2023/04/16 07:55:06;;;;;;;44.35;21.80;;;10.40;99.90;;;;;;5000811;28;20041;-53
2023/04/16 07:57:32;;;;;;;48.85;23.90;;;10.50;99.90;;;;;;5005016;28;20057;-56
2023/04/16 07:59:58;;;;;;;46.95;23.33;;;10.60;99.90;;;;;;5005077;28;20114;-53
2023/04/16 08:02:25;;;;;;;41.30;21.10;;;10.60;99.90;;;;;;5001722;28;20033;-56
2023/04/16 08:04:50;;;;;;;41.13;20.35;;;10.70;99.90;;;;;;4999784;28;20034;-53
2023/04/16 08:07:16;;;;;;;44.38;21.65;;;10.40;99.90;;;;;;5000408;28;20045;-56
2023/04/16 08:09:50;;;;;;;39.03;21.25;;;10.60;99.90;;;;;;5001326;28;20038;-59
2023/04/16 08:12:17;;;;;;;38.17;21.00;;;10.80;99.90;;;;;;5001300;28;20034;-55
2023/04/16 08:14:44;;;;;;;45.38;21.55;;;10.80;99.90;;;;;;4999941;28;20041;-58
2023/04/16 08:17:11;;;;;;;37.65;20.73;;;10.80;99.90;;;;;;5001678;28;20147;-55
2023/04/16 08:19:36;;;;;;;40.47;19.42;;;11.00;99.90;;;;;;5001261;28;20037;-52
2023/04/16 08:22:02;;;;;;;39.80;21.23;;;11.00;99.90;;;;;;5001382;28;20041;-51
2023/04/16 08:24:28;;;;;;;36.42;19.58;;;11.20;99.90;;;;;;5004510;28;20060;-49
2023/04/16 08:26:54;;;;;;;37.53;19.70;;;11.30;99.90;;;;;;5010828;28;20046;-52
2023/04/16 08:29:20;;;;;;;35.22;17.90;;;11.50;99.90;;;;;;5010938;28;20033;-56
2023/04/16 08:31:46;;;;;;;35.88;18.45;;;11.40;99.90;;;;;;5011192;28;20092;-56
2023/04/16 08:34:11;;;;;;;34.22;17.88;;;11.30;99.90;;;;;;5012894;28;20053;-55
2023/04/16 08:36:37;;;;;;;32.30;18.15;;;11.40;99.90;;;;;;5013139;28;20385;-51
2023/04/16 08:39:03;;;;;;;37.92;18.70;;;11.40;99.90;;;;;;5011854;28;20421;-51
2023/04/16 08:41:35;;;;;;;38.72;19.33;;;11.50;99.90;;;;;;5010386;28;20049;-56
2023/04/16 08:44:07;;;;;;;37.47;19.58;;;11.60;99.90;;;;;;5012059;28;20180;-54
2023/04/16 08:46:36;;;;;;;38.97;20.38;;;11.60;99.90;;;;;;5012739;28;20481;-55
2023/04/16 08:49:04;;;;;;;36.17;17.88;;;11.70;99.90;;;;;;5011516;28;20628;-55
2023/04/16 08:51:34;;;;;;;39.33;19.45;;;11.70;99.90;;;;;;5010884;28;20049;-55
2023/04/16 08:54:03;;;;;;;34.88;17.80;;;11.80;99.90;;;;;;5011831;28;20042;-55
2023/04/16 08:56:30;;;;;;;37.53;17.98;;;11.90;99.90;;;;;;5012405;28;20065;-57
2023/04/16 08:58:57;;;;;;;36.40;18.58;;;12.00;99.90;;;;;;5019132;28;20497;-55
2023/04/16 09:01:25;;;;;;;34.40;18.25;;;11.90;99.90;;;;;;5011741;28;20136;-59
2023/04/16 09:03:52;;;;;;;39.85;18.58;;;11.90;99.90;;;;;;5008908;28;20049;-56
2023/04/16 09:06:18;;;;;;;39.28;18.58;;;12.10;99.90;;;;;;5010133;28;20049;-58
2023/04/16 09:08:45;;;;;;;31.13;17.10;;;12.10;99.90;;;;;;5008289;28;20042;-57
2023/04/16 09:11:18;;;;;;;30.17;16.90;;;12.20;99.90;;;;;;5011288;28;20046;-56
2023/04/16 09:13:45;;;;;;;38.78;18.30;;;12.20;99.90;;;;;;5007826;28;20033;-58
2023/04/16 09:16:12;;;;;;;35.30;17.35;;;12.30;99.90;;;;;;5011668;28;20053;-56
2023/04/16 09:18:38;;;;;;;31.25;18.83;;;12.30;99.90;;;;;;5012432;28;20033;-59
2023/04/16 09:21:04;;;;;;;33.63;18.08;;;12.30;99.90;;;;;;5010332;28;20057;-54
2023/04/16 09:23:30;;;;;;;37.40;19.00;;;12.50;99.90;;;;;;5023514;28;20037;-53
2023/04/16 09:25:58;;;;;;;35.15;18.30;;;12.60;99.90;;;;;;5017951;28;20046;-53
2023/04/16 09:28:44;;;;;;;33.92;18.52;;;12.60;99.90;;;;;;5010989;28;20070;-60
2023/04/16 09:31:15;;;;;;;32.78;20.40;;;12.60;99.90;;;;;;5011630;28;20065;-58
2023/04/16 09:33:41;;;;;;;30.42;21.17;;;12.70;99.90;;;;;;5011454;28;20037;-52
2023/04/16 09:36:08;;;;;;;32.65;17.10;;;12.90;99.90;;;;;;4993743;28;20108;-59
2023/04/16 09:38:51;;;;;;;32.85;18.63;;;12.90;99.90;;;;;;5014183;28;20128;-60
2023/04/16 09:41:17;;;;;;;32.17;18.38;;;13.00;99.90;;;;;;5017656;28;20046;-53
2023/04/16 09:43:58;;;;;;;37.10;20.10;;;13.10;99.90;;;;;;5010750;28;20069;-50
2023/04/16 09:46:34;;;;;;;34.22;19.88;;;13.30;99.90;;;;;;5009510;28;20365;-56
2023/04/16 09:49:13;;;;;;;32.75;19.38;;;13.50;99.90;;;;;;5012119;28;20045;-55
2023/04/16 09:51:44;;;;;;;30.55;18.98;;;13.60;99.90;;;;;;5009717;28;20064;-51
2023/04/16 09:54:10;;;;;;;33.22;19.17;;;13.60;99.90;;;;;;5011028;28;20050;-54
2023/04/16 09:56:40;;;;;;;32.75;19.08;;;13.60;99.90;;;;;;5011447;28;20400;-52
2023/04/16 09:59:07;;;;;;;32.20;19.20;;;13.50;99.90;;;;;;5009768;28;20052;-54
2023/04/16 10:01:35;;;;;;;32.65;19.98;;;13.60;99.90;;;;;;5010839;28;20071;-54
2023/04/16 10:04:00;;;;;;;34.92;20.17;;;13.80;99.90;;;;;;5011052;28;20038;-57
2023/04/16 10:06:28;;;;;;;36.20;19.30;;;13.90;99.90;;;;;;5010199;28;20049;-50
2023/04/16 10:08:57;;;;;;;35.08;18.58;;;13.80;99.90;;;;;;5021849;28;20065;-58
2023/04/16 10:11:23;;;;;;;30.17;17.80;;;13.80;99.90;;;;;;5010610;28;20053;-58
2023/04/16 10:13:49;;;;;;;33.63;18.00;;;13.90;99.90;;;;;;5008408;28;20386;-52
2023/04/16 10:16:16;;;;;;;31.23;18.38;;;13.90;99.90;;;;;;5010625;28;20045;-51
2023/04/16 10:18:44;;;;;;;33.00;17.35;;;14.00;99.90;;;;;;5010055;28;20111;-60
2023/04/16 10:21:11;;;;;;;30.33;16.50;;;14.10;99.90;;;;;;5009442;28;20030;-56
2023/04/16 10:23:38;;;;;;;30.30;16.92;;;14.20;99.90;;;;;;5008565;28;20054;-53
2023/04/16 10:26:05;;;;;;;33.97;18.95;;;14.30;99.90;;;;;;5010703;28;20038;-57
2023/04/16 10:28:34;;;;;;;29.75;17.80;;;14.40;99.90;;;;;;5009451;28;20442;-53
2023/04/16 10:31:02;;;;;;;31.50;18.00;;;14.40;99.90;;;;;;5010062;28;20515;-52
2023/04/16 10:33:31;;;;;;;33.25;18.40;;;14.50;99.90;;;;;;5009586;28;20030;-56
2023/04/16 10:36:26;;;;;;;31.33;17.98;;;14.50;99.90;;;;;;5009233;28;20477;-51
2023/04/16 10:38:55;;;;;;;;;;;14.60;99.90;;;;;;5000727;28;20046;-52
2023/04/16 10:41:21;;;;;;;32.25;17.98;;;14.50;99.90;;;;;;5011064;28;19917;-54
2023/04/16 10:43:49;;;;;;;29.45;17.20;;;14.50;99.90;;;;;;5010399;28;20045;-54
2023/04/16 10:46:31;;;;;;;29.13;16.52;;;14.50;99.90;;;;;;5009231;28;20046;-57
2023/04/16 10:49:11;;;;;;;29.67;16.50;;;14.60;99.90;;;;;;5010769;28;20069;-55
2023/04/16 10:51:36;;;;;;;29.17;16.58;;;14.60;99.90;;;;;;5003737;28;20561;-53
2023/04/16 10:54:10;;;;;;;28.48;17.15;;;14.70;99.90;;;;;;4980802;28;20125;-55
2023/04/16 10:56:36;;;;;;;29.00;16.47;;;14.60;99.90;;;;;;4968608;28;20438;-57
2023/04/16 10:59:10;;;;;;;29.25;16.40;;;14.60;99.90;;;;;;4994613;28;20046;-55
2023/04/16 11:01:40;;;;;;;31.35;16.02;;;14.60;99.90;;;;;;4997464;28;20045;-55
2023/04/16 11:04:23;;;;;;;30.00;15.20;;;14.70;99.90;;;;;;4976756;28;20042;-53
2023/04/16 11:07:05;;;;;;;26.23;14.82;;;14.80;99.90;;;;;;4998596;28;20117;-55
2023/04/16 11:09:47;;;;;;;27.50;15.68;;;14.80;99.90;;;;;;4994794;28;20117;-54
2023/04/16 11:12:26;;;;;;;28.25;15.85;;;15.00;99.90;;;;;;4997600;28;20044;-53
2023/04/16 11:15:02;;;;;;;29.40;15.25;;;15.10;99.90;;;;;;5001533;28;20119;-55
2023/04/16 11:17:30;;;;;;;29.80;14.90;;;15.20;99.90;;;;;;4978812;28;20042;-56
2023/04/16 11:19:57;;;;;;;26.45;14.63;;;15.20;99.90;;;;;;5001527;28;20042;-52
2023/04/16 11:22:23;;;;;;;30.15;14.35;;;15.30;99.90;;;;;;4995912;28;20037;-54
2023/04/16 11:24:54;;;;;;;28.67;14.98;;;15.30;99.90;;;;;;4984389;28;20107;-56
2023/04/16 11:27:21;;;;;;;27.33;15.18;;;15.40;99.90;;;;;;4999189;28;20497;-51
2023/04/16 11:29:59;;;;;;;29.63;15.48;;;15.40;99.90;;;;;;5009217;28;20424;-53
2023/04/16 11:32:25;;;;;;;28.25;14.57;;;15.40;99.90;;;;;;4990168;28;20491;-56
2023/04/16 11:34:51;;;;;;;25.75;14.48;;;15.50;99.90;;;;;;5009542;28;20117;-51
2023/04/16 11:37:30;;;;;;;28.80;14.75;;;15.60;99.90;;;;;;5009391;28;20512;-53
2023/04/16 11:39:55;;;;;;;27.60;15.18;;;15.50;99.90;;;;;;5009889;28;20401;-56
2023/04/16 11:42:21;;;;;;;26.58;14.93;;;15.40;99.90;;;;;;5007805;28;20088;-54
2023/04/16 11:44:52;;;;;;;28.75;15.85;;;15.30;99.90;;;;;;5009212;28;20389;-51
2023/04/16 11:47:18;;;;;;;23.40;14.48;;;15.30;99.90;;;;;;4989628;28;20046;-53
2023/04/16 11:49:43;;;;;;;28.10;14.90;;;15.20;99.90;;;;;;5008798;28;20104;-55
2023/04/16 11:52:10;;;;;;;27.98;14.93;;;15.20;99.90;;;;;;5008468;28;20405;-56
2023/04/16 11:54:36;;;;;;;28.67;14.63;;;15.20;99.90;;;;;;4995181;28;20037;-58
2023/04/16 11:57:03;;;;;;;30.42;15.68;;;15.30;99.90;;;;;;5010970;28;20038;-56
2023/04/16 11:59:29;;;;;;;26.35;14.27;;;15.40;99.90;;;;;;5012684;28;20042;-53
2023/04/16 12:01:55;;;;;;;24.00;14.68;;;15.30;99.90;;;;;;5012400;28;20053;-55
2023/04/16 12:04:24;;;;;;;29.92;15.43;;;15.40;99.90;;;;;;5012676;28;20516;-55
2023/04/16 12:07:12;;;;;;;29.20;15.13;;;15.40;99.90;;;;;;5011629;28;20413;-54
2023/04/16 12:09:40;;;;;;;29.70;14.77;;;15.50;99.90;;;;;;5012283;28;20462;-58
2023/04/16 12:12:23;;;;;;;26.23;14.65;;;15.50;99.90;;;;;;5010000;28;20525;-56
2023/04/16 12:14:50;;;;;;;29.55;15.48;;;15.60;99.90;;;;;;5012551;28;20046;-54
2023/04/16 12:17:22;;;;;;;27.38;15.40;;;15.50;99.90;;;;;;5011717;28;20444;-54
2023/04/16 12:19:55;;;;;;;24.88;16.05;;;15.50;99.90;;;;;;5011956;28;20038;-55
2023/04/16 12:22:33;;;;;;;25.40;15.60;;;15.40;99.90;;;;;;5013488;28;20057;-55
2023/04/16 12:25:04;;;;;;;29.85;15.65;;;15.40;99.90;;;;;;5011687;28;20048;-55
2023/04/16 12:27:46;;;;;;;24.27;14.10;;;15.30;99.90;;;;;;5012635;28;20038;-54
2023/04/16 12:30:13;;;;;;;25.65;14.27;;;15.30;99.90;;;;;;5011462;28;20117;-52
2023/04/16 12:32:40;;;;;;;27.58;14.40;;;15.30;99.90;;;;;;5012059;28;20091;-55
2023/04/16 12:35:07;;;;;;;24.15;14.80;;;15.40;99.90;;;;;;5013287;28;20038;-53